createdAt,value
2018-03-02T00:00:44.023Z,0
2018-03-02T00:01:24.532Z,0
2018-03-02T00:02:05.046Z,0
2018-03-02T00:02:45.553Z,0
2018-03-02T00:03:26.065Z,0
2018-03-02T00:04:06.654Z,0
2018-03-02T00:04:47.541Z,0
2018-03-02T00:05:28.083Z,0
2018-03-02T00:06:08.591Z,0
2018-03-02T00:06:49.261Z,0
2018-03-02T00:07:29.585Z,0
2018-03-02T00:08:10.080Z,0
2018-03-02T00:08:50.601Z,0
2018-03-02T00:09:31.113Z,0
2018-03-02T00:10:11.608Z,0
2018-03-02T00:10:52.138Z,0
2018-03-02T00:11:32.656Z,0
2018-03-02T00:12:13.384Z,0
2018-03-02T00:12:54.155Z,0
2018-03-02T00:13:34.661Z,0
2018-03-02T00:14:15.168Z,0
2018-03-02T00:14:55.696Z,0
2018-03-02T00:15:36.193Z,0
2018-03-02T00:16:16.695Z,0
2018-03-02T00:16:57.198Z,0
2018-03-02T00:17:37.689Z,0
2018-03-02T00:18:18.227Z,0
2018-03-02T00:18:59.166Z,0
2018-03-02T00:19:39.551Z,0
2018-03-02T00:20:19.993Z,0
2018-03-02T00:21:00.488Z,0
2018-03-02T00:21:40.979Z,0
2018-03-02T00:22:21.481Z,0
2018-03-02T00:23:01.982Z,0
2018-03-02T00:23:42.508Z,0
2018-03-02T00:24:23.031Z,0
2018-03-02T00:25:03.519Z,0
2018-03-02T00:25:44.011Z,0
2018-03-02T00:26:24.513Z,0
2018-03-02T00:27:05.034Z,0
2018-03-02T00:27:45.544Z,0
2018-03-02T00:28:26.077Z,0
2018-03-02T00:29:06.571Z,0
2018-03-02T00:29:47.099Z,0
2018-03-02T00:30:27.606Z,0
2018-03-02T00:31:08.140Z,0
2018-03-02T00:31:48.659Z,0
2018-03-02T00:32:29.172Z,0
2018-03-02T00:33:09.700Z,0
2018-03-02T00:33:50.306Z,0
2018-03-02T00:34:30.879Z,0
2018-03-02T00:35:11.406Z,0
2018-03-02T00:35:51.854Z,0
2018-03-02T00:36:32.428Z,0
2018-03-02T00:37:12.953Z,0
2018-03-02T00:37:53.412Z,0
2018-03-02T00:38:33.926Z,0
2018-03-02T00:39:14.424Z,0
2018-03-02T00:39:54.924Z,0
2018-03-02T00:40:35.435Z,0
2018-03-02T00:41:15.992Z,0
2018-03-02T00:41:56.530Z,0
2018-03-02T00:42:37.119Z,0
2018-03-02T00:43:17.604Z,0
2018-03-02T00:45:58.077Z,0
2018-03-02T00:46:38.604Z,0
2018-03-02T00:47:19.130Z,0
2018-03-02T00:47:59.666Z,0
2018-03-02T00:48:40.136Z,0
2018-03-02T00:49:20.685Z,0
2018-03-02T00:50:01.242Z,0
2018-03-02T00:50:41.953Z,0
2018-03-02T00:51:22.437Z,0
2018-03-02T00:52:03.127Z,0
2018-03-02T00:52:43.722Z,0
2018-03-02T00:53:24.241Z,0
2018-03-02T00:54:04.744Z,0
2018-03-02T00:54:45.256Z,0
2018-03-02T00:55:25.759Z,0
2018-03-02T00:56:06.295Z,0
2018-03-02T00:56:46.918Z,0
2018-03-02T00:57:27.310Z,0
2018-03-02T00:58:07.810Z,0
2018-03-02T00:58:49.127Z,0
2018-03-02T00:59:29.675Z,0
2018-03-02T01:00:10.113Z,0
2018-03-02T01:00:50.596Z,0
2018-03-02T01:01:31.413Z,0
2018-03-02T01:02:11.896Z,0
2018-03-02T01:02:52.418Z,0
2018-03-02T01:03:32.934Z,0
2018-03-02T01:04:13.452Z,0
2018-03-02T01:04:53.960Z,0
2018-03-02T01:05:34.454Z,0
2018-03-02T01:06:14.960Z,0
2018-03-02T01:06:55.451Z,0
2018-03-02T01:07:36.063Z,0
2018-03-02T01:08:16.772Z,0
2018-03-02T01:10:45.501Z,0
2018-03-02T01:11:26.016Z,0
2018-03-02T01:13:56.504Z,0
2018-03-02T01:14:37.058Z,0
2018-03-02T01:15:17.575Z,0
2018-03-02T01:15:58.144Z,0
2018-03-02T01:16:38.590Z,0
2018-03-02T01:17:19.107Z,0
2018-03-02T01:17:59.613Z,0
2018-03-02T01:18:40.108Z,0
2018-03-02T01:19:20.571Z,0
2018-03-02T01:20:01.050Z,0
2018-03-02T01:20:41.545Z,0
2018-03-02T01:21:22.072Z,0
2018-03-02T01:22:02.572Z,0
2018-03-02T01:22:43.017Z,0
2018-03-02T01:23:23.565Z,0
2018-03-02T01:24:04.057Z,0
2018-03-02T01:24:44.565Z,0
2018-03-02T01:25:25.152Z,0
2018-03-02T01:26:05.649Z,0
2018-03-02T01:26:46.134Z,0
2018-03-02T01:27:26.624Z,0
2018-03-02T01:28:07.129Z,0
2018-03-02T01:28:47.624Z,0
2018-03-02T01:29:28.128Z,0
2018-03-02T01:30:08.678Z,0
2018-03-02T01:30:49.191Z,0
2018-03-02T01:31:29.661Z,0
2018-03-02T01:32:10.142Z,0
2018-03-02T01:32:50.598Z,0
2018-03-02T01:33:31.060Z,0
2018-03-02T01:34:11.554Z,0
2018-03-02T01:34:52.037Z,0
2018-03-02T01:35:32.567Z,0
2018-03-02T01:36:13.062Z,0
2018-03-02T01:36:53.531Z,0
2018-03-02T01:37:34.059Z,0
2018-03-02T01:38:14.671Z,0
2018-03-02T01:38:55.171Z,0
2018-03-02T01:39:35.678Z,0
2018-03-02T01:40:16.164Z,0
2018-03-02T01:40:56.668Z,0
2018-03-02T01:41:37.160Z,0
2018-03-02T01:42:17.680Z,0
2018-03-02T01:42:58.201Z,0
2018-03-02T01:43:38.690Z,0
2018-03-02T01:44:19.154Z,0
2018-03-02T01:44:59.703Z,0
2018-03-02T01:45:40.164Z,0
2018-03-02T01:46:20.673Z,0
2018-03-02T01:47:01.226Z,0
2018-03-02T01:47:41.688Z,0
2018-03-02T01:48:22.173Z,0
2018-03-02T01:49:02.640Z,0
2018-03-02T01:49:43.110Z,0
2018-03-02T01:50:23.685Z,0
2018-03-02T01:51:04.131Z,0
2018-03-02T01:51:44.622Z,0
2018-03-02T01:52:25.123Z,0
2018-03-02T01:53:05.840Z,0
2018-03-02T01:53:46.239Z,0
2018-03-02T01:54:26.816Z,0
2018-03-02T01:55:07.276Z,0
2018-03-02T01:55:47.775Z,0
2018-03-02T01:56:28.265Z,0
2018-03-02T01:57:08.759Z,0
2018-03-02T01:57:49.476Z,0
2018-03-02T01:58:30.090Z,0
2018-03-02T01:59:10.570Z,0
2018-03-02T01:59:50.978Z,0
2018-03-02T02:00:31.461Z,0
2018-03-02T02:03:11.923Z,0
2018-03-02T02:03:52.423Z,0
2018-03-02T02:04:32.916Z,0
2018-03-02T02:05:13.435Z,0
2018-03-02T02:05:53.943Z,0
2018-03-02T02:06:34.473Z,0
2018-03-02T02:07:14.980Z,0
2018-03-02T02:07:55.483Z,0
2018-03-02T02:08:35.983Z,0
2018-03-02T02:09:16.484Z,0
2018-03-02T02:09:57.015Z,0
2018-03-02T02:10:37.517Z,0
2018-03-02T02:11:18.014Z,0
2018-03-02T02:11:58.539Z,0
2018-03-02T02:12:39.033Z,0
2018-03-02T02:13:19.546Z,0
2018-03-02T02:14:00.035Z,0
2018-03-02T02:14:40.527Z,0
2018-03-02T02:15:21.036Z,0
2018-03-02T02:16:01.547Z,0
2018-03-02T02:16:42.057Z,0
2018-03-02T02:17:22.549Z,0
2018-03-02T02:18:03.051Z,0
2018-03-02T02:18:43.569Z,0
2018-03-02T02:19:24.085Z,0
2018-03-02T02:20:04.603Z,0
2018-03-02T02:20:45.128Z,0
2018-03-02T02:21:25.637Z,0
2018-03-02T02:22:06.157Z,0
2018-03-02T02:22:46.665Z,0
2018-03-02T02:23:27.169Z,0
2018-03-02T02:24:07.676Z,0
2018-03-02T02:24:48.190Z,0
2018-03-02T02:25:28.714Z,0
2018-03-02T02:26:09.227Z,0
2018-03-02T02:26:49.753Z,0
2018-03-02T02:27:30.244Z,0
2018-03-02T02:28:10.780Z,0
2018-03-02T02:28:51.286Z,0
2018-03-02T02:29:31.797Z,0
2018-03-02T02:30:12.326Z,0
2018-03-02T02:30:52.841Z,0
2018-03-02T02:31:33.344Z,0
2018-03-02T02:32:13.856Z,0
2018-03-02T02:32:54.375Z,0
2018-03-02T02:33:34.893Z,0
2018-03-02T02:34:15.424Z,0
2018-03-02T02:34:55.898Z,0
2018-03-02T02:35:36.415Z,0
2018-03-02T02:36:16.920Z,0
2018-03-02T02:36:57.433Z,0
2018-03-02T02:37:37.944Z,0
2018-03-02T02:38:18.454Z,0
2018-03-02T02:38:58.975Z,0
2018-03-02T02:39:39.484Z,0
2018-03-02T02:40:20.006Z,0
2018-03-02T02:41:00.501Z,0
2018-03-02T02:41:41.245Z,0
2018-03-02T02:42:21.514Z,0
2018-03-02T02:43:02.022Z,0
2018-03-02T02:43:42.530Z,0
2018-03-02T02:44:23.034Z,0
2018-03-02T02:45:03.552Z,0
2018-03-02T02:45:44.055Z,0
2018-03-02T02:46:24.559Z,0
2018-03-02T02:47:05.081Z,0
2018-03-02T02:47:45.588Z,0
2018-03-02T02:48:26.121Z,0
2018-03-02T02:49:06.627Z,0
2018-03-02T02:49:47.137Z,0
2018-03-02T02:50:27.654Z,0
2018-03-02T02:51:08.176Z,0
2018-03-02T02:51:48.697Z,0
2018-03-02T02:52:29.203Z,0
2018-03-02T02:53:09.716Z,0
2018-03-02T02:53:50.238Z,0
2018-03-02T02:54:30.757Z,0
2018-03-02T02:55:11.265Z,0
2018-03-02T02:55:51.788Z,0
2018-03-02T02:56:32.304Z,0
2018-03-02T02:57:12.804Z,0
2018-03-02T02:57:53.308Z,0
2018-03-02T02:58:33.823Z,0
2018-03-02T02:59:14.342Z,0
2018-03-02T02:59:54.835Z,0
2018-03-02T03:00:35.345Z,0
2018-03-02T03:01:15.857Z,0
2018-03-02T03:01:56.362Z,0
2018-03-02T03:02:36.904Z,0
2018-03-02T03:03:17.408Z,0
2018-03-02T03:03:57.903Z,0
2018-03-02T03:04:38.434Z,0
2018-03-02T03:05:18.957Z,0
2018-03-02T03:05:59.451Z,0
2018-03-02T03:06:39.968Z,0
2018-03-02T03:07:20.532Z,0
2018-03-02T03:08:01.093Z,0
2018-03-02T03:08:41.601Z,0
2018-03-02T03:09:22.161Z,0
2018-03-02T03:10:02.685Z,0
2018-03-02T03:10:43.190Z,0
2018-03-02T03:11:23.705Z,0
2018-03-02T03:12:04.312Z,0
2018-03-02T03:12:44.834Z,0
2018-03-02T03:13:25.338Z,0
2018-03-02T03:14:05.848Z,0
2018-03-02T03:14:46.355Z,0
2018-03-02T03:15:26.879Z,0
2018-03-02T03:16:07.420Z,0
2018-03-02T03:16:47.929Z,0
2018-03-02T03:17:28.441Z,0
2018-03-02T03:18:08.954Z,0
2018-03-02T03:18:49.465Z,0
2018-03-02T03:19:29.974Z,0
2018-03-02T03:20:10.500Z,0
2018-03-02T03:20:51.009Z,0
2018-03-02T03:21:31.514Z,0
2018-03-02T03:22:12.049Z,0
2018-03-02T03:22:52.557Z,0
2018-03-02T03:23:33.078Z,0
2018-03-02T03:24:13.592Z,0
2018-03-02T03:24:54.094Z,0
2018-03-02T03:25:34.608Z,0
2018-03-02T03:26:15.117Z,0
2018-03-02T03:26:55.619Z,0
2018-03-02T03:27:36.135Z,0
2018-03-02T03:28:16.640Z,0
2018-03-02T03:28:57.162Z,0
2018-03-02T03:29:37.662Z,0
2018-03-02T03:30:18.210Z,0
2018-03-02T03:30:58.722Z,0
2018-03-02T03:31:39.248Z,0
2018-03-02T03:32:19.758Z,0
2018-03-02T03:33:00.292Z,0
2018-03-02T03:33:40.792Z,0
2018-03-02T03:34:21.299Z,0
2018-03-02T03:35:01.819Z,0
2018-03-02T03:35:42.355Z,0
2018-03-02T03:36:22.862Z,0
2018-03-02T03:37:03.369Z,0
2018-03-02T03:37:43.862Z,0
2018-03-02T03:38:24.384Z,0
2018-03-02T03:39:04.918Z,0
2018-03-02T03:39:45.424Z,0
2018-03-02T03:40:25.933Z,0
2018-03-02T03:41:06.447Z,0
2018-03-02T03:41:46.968Z,0
2018-03-02T03:42:27.486Z,0
2018-03-02T03:43:08.574Z,0
2018-03-02T03:43:49.071Z,0
2018-03-02T03:44:29.575Z,0
2018-03-02T03:45:10.127Z,0
2018-03-02T03:45:50.636Z,0
2018-03-02T03:46:31.168Z,0
2018-03-02T03:47:11.690Z,0
2018-03-02T03:47:52.199Z,0
2018-03-02T03:48:32.709Z,0
2018-03-02T03:49:13.216Z,0
2018-03-02T03:49:53.725Z,0
2018-03-02T03:50:34.232Z,0
2018-03-02T03:51:14.789Z,0
2018-03-02T03:51:55.285Z,0
2018-03-02T03:52:35.784Z,0
2018-03-02T03:53:16.309Z,0
2018-03-02T03:53:56.820Z,0
2018-03-02T03:54:37.366Z,0
2018-03-02T03:55:17.885Z,0
2018-03-02T03:55:58.391Z,0
2018-03-02T03:56:38.904Z,0
2018-03-02T03:57:19.458Z,0
2018-03-02T03:57:59.958Z,0
2018-03-02T04:00:28.511Z,0
2018-03-02T04:01:09.025Z,0
2018-03-02T04:01:49.524Z,0
2018-03-02T04:02:30.040Z,0
2018-03-02T04:03:10.558Z,0
2018-03-02T04:03:51.081Z,0
2018-03-02T04:04:31.588Z,0
2018-03-02T04:05:12.125Z,0
2018-03-02T04:05:52.638Z,0
2018-03-02T04:06:33.156Z,0
2018-03-02T04:07:13.662Z,0
2018-03-02T04:07:54.173Z,0
2018-03-02T04:08:34.687Z,0
2018-03-02T04:09:15.193Z,0
2018-03-02T04:09:55.699Z,0
2018-03-02T04:10:36.225Z,0
2018-03-02T04:11:16.726Z,0
2018-03-02T04:11:57.237Z,0
2018-03-02T04:12:37.758Z,0
2018-03-02T04:13:18.266Z,0
2018-03-02T04:13:58.779Z,0
2018-03-02T04:14:39.287Z,0
2018-03-02T04:15:19.806Z,0
2018-03-02T04:16:00.322Z,0
2018-03-02T04:16:40.882Z,0
2018-03-02T04:17:21.364Z,0
2018-03-02T04:18:01.884Z,0
2018-03-02T04:18:42.395Z,0
2018-03-02T04:19:22.909Z,0
2018-03-02T04:20:03.411Z,0
2018-03-02T04:20:43.918Z,0
2018-03-02T04:21:24.429Z,0
2018-03-02T04:22:04.953Z,0
2018-03-02T04:22:45.466Z,0
2018-03-02T04:23:25.966Z,0
2018-03-02T04:24:06.476Z,0
2018-03-02T04:24:47.000Z,0
2018-03-02T04:25:27.499Z,0
2018-03-02T04:26:08.000Z,0
2018-03-02T04:26:48.510Z,0
2018-03-02T04:27:29.014Z,0
2018-03-02T04:28:09.545Z,0
2018-03-02T04:28:50.036Z,0
2018-03-02T04:29:30.552Z,0
2018-03-02T04:30:11.056Z,0
2018-03-02T04:30:51.560Z,0
2018-03-02T04:31:32.073Z,0
2018-03-02T04:32:12.572Z,0
2018-03-02T04:32:53.074Z,0
2018-03-02T04:33:33.585Z,0
2018-03-02T04:34:14.099Z,0
2018-03-02T04:34:54.613Z,0
2018-03-02T04:35:35.134Z,0
2018-03-02T04:36:15.644Z,0
2018-03-02T04:36:56.152Z,0
2018-03-02T04:37:36.690Z,0
2018-03-02T04:38:17.264Z,0
2018-03-02T04:38:57.769Z,0
2018-03-02T04:39:38.275Z,0
2018-03-02T04:40:18.787Z,0
2018-03-02T04:40:59.316Z,0
2018-03-02T04:43:34.664Z,0
2018-03-02T04:44:15.148Z,0
2018-03-02T04:44:55.652Z,0
2018-03-02T04:45:36.186Z,0
2018-03-02T04:46:16.709Z,0
2018-03-02T04:46:57.215Z,0
2018-03-02T04:47:37.726Z,0
2018-03-02T04:48:18.225Z,0
2018-03-02T04:48:58.751Z,0
2018-03-02T04:49:39.255Z,0
2018-03-02T04:50:19.754Z,0
2018-03-02T04:51:00.269Z,0
2018-03-02T04:51:40.777Z,0
2018-03-02T04:52:21.294Z,0
2018-03-02T04:53:01.826Z,0
2018-03-02T04:53:42.295Z,0
2018-03-02T04:54:22.794Z,0
2018-03-02T04:55:03.325Z,0
2018-03-02T04:55:43.818Z,0
2018-03-02T04:56:24.386Z,0
2018-03-02T04:57:04.840Z,0
2018-03-02T04:57:45.340Z,0
2018-03-02T04:58:25.838Z,0
2018-03-02T04:59:06.339Z,0
2018-03-02T04:59:46.831Z,0
2018-03-02T05:00:27.335Z,0
2018-03-02T05:01:07.855Z,0
2018-03-02T05:01:48.344Z,0
2018-03-02T05:02:28.837Z,0
2018-03-02T05:03:09.325Z,0
2018-03-02T05:03:49.816Z,0
2018-03-02T05:04:30.319Z,0
2018-03-02T05:05:10.807Z,0
2018-03-02T05:05:51.314Z,0
2018-03-02T05:06:32.686Z,0
2018-03-02T05:07:12.367Z,0
2018-03-02T05:07:52.838Z,0
2018-03-02T05:08:33.354Z,0
2018-03-02T05:09:13.867Z,0
2018-03-02T05:09:54.367Z,0
2018-03-02T05:10:34.869Z,0
2018-03-02T05:11:15.368Z,0
2018-03-02T05:11:55.860Z,0
2018-03-02T05:12:36.389Z,0
2018-03-02T05:13:16.858Z,0
2018-03-02T05:13:57.369Z,0
2018-03-02T05:14:37.870Z,0
2018-03-02T05:15:18.372Z,0
2018-03-02T05:15:58.901Z,0
2018-03-02T05:16:39.381Z,0
2018-03-02T05:17:19.866Z,0
2018-03-02T05:18:00.425Z,0
2018-03-02T05:18:40.887Z,0
2018-03-02T05:21:21.312Z,0
2018-03-02T05:22:01.818Z,0
2018-03-02T05:22:42.334Z,0
2018-03-02T05:23:22.841Z,0
2018-03-02T05:24:03.363Z,0
2018-03-02T05:24:43.862Z,0
2018-03-02T05:25:24.404Z,0
2018-03-02T05:26:04.900Z,0
2018-03-02T05:26:45.396Z,0
2018-03-02T05:27:25.914Z,0
2018-03-02T05:28:06.412Z,0
2018-03-02T05:28:46.915Z,0
2018-03-02T05:29:27.432Z,0
2018-03-02T05:30:07.941Z,0
2018-03-02T05:30:48.426Z,0
2018-03-02T05:31:28.986Z,0
2018-03-02T05:32:09.451Z,0
2018-03-02T05:32:49.993Z,0
2018-03-02T05:33:30.502Z,0
2018-03-02T05:34:11.038Z,0
2018-03-02T05:34:51.647Z,0
2018-03-02T05:35:32.135Z,0
2018-03-02T05:36:12.646Z,0
2018-03-02T05:36:53.149Z,0
2018-03-02T05:37:33.674Z,0
2018-03-02T05:38:14.219Z,0
2018-03-02T05:38:54.719Z,0
2018-03-02T05:41:07.952Z,0
2018-03-02T05:41:48.472Z,0
2018-03-02T05:42:28.969Z,0
2018-03-02T05:43:09.459Z,0
2018-03-02T05:43:49.944Z,0
2018-03-02T05:44:30.476Z,0
2018-03-02T05:45:10.971Z,0
2018-03-02T05:45:51.494Z,0
2018-03-02T05:46:32.079Z,0
2018-03-02T05:47:12.527Z,0
2018-03-02T05:47:53.033Z,0
2018-03-02T05:48:33.520Z,0
2018-03-02T05:49:14.013Z,0
2018-03-02T05:49:54.492Z,0
2018-03-02T05:50:35.000Z,0
2018-03-02T05:51:15.581Z,0
2018-03-02T05:51:56.109Z,0
2018-03-02T05:52:36.602Z,0
2018-03-02T05:53:17.109Z,0
2018-03-02T05:53:57.616Z,0
2018-03-02T05:54:38.125Z,0
2018-03-02T05:55:18.610Z,0
2018-03-02T05:55:59.135Z,0
2018-03-02T05:56:39.657Z,0
2018-03-02T05:57:20.155Z,0
2018-03-02T05:58:00.654Z,0
2018-03-02T05:58:41.153Z,0
2018-03-02T05:59:21.653Z,0
2018-03-02T06:00:02.154Z,0
2018-03-02T06:00:42.648Z,0
2018-03-02T06:01:23.138Z,0
2018-03-02T06:02:03.704Z,0
2018-03-02T06:02:44.404Z,0
2018-03-02T06:03:24.938Z,0
2018-03-02T06:04:05.502Z,0
2018-03-02T06:04:46.019Z,0
2018-03-02T06:05:26.504Z,0
2018-03-02T06:06:07.008Z,0
2018-03-02T06:06:47.532Z,0
2018-03-02T06:07:28.045Z,0
2018-03-02T06:08:08.546Z,0
2018-03-02T06:08:49.055Z,0
2018-03-02T06:09:29.564Z,0
2018-03-02T06:10:10.104Z,0
2018-03-02T06:10:50.649Z,0
2018-03-02T06:11:31.159Z,0
2018-03-02T06:12:11.668Z,0
2018-03-02T06:12:52.176Z,0
2018-03-02T06:13:32.682Z,0
2018-03-02T06:14:13.202Z,0
2018-03-02T06:14:53.678Z,0
2018-03-02T06:15:34.183Z,0
2018-03-02T06:16:14.726Z,0
2018-03-02T06:16:55.223Z,0
2018-03-02T06:17:35.723Z,0
2018-03-02T06:18:16.326Z,0
2018-03-02T06:18:56.847Z,0
2018-03-02T06:19:37.376Z,0
2018-03-02T06:20:17.882Z,0
2018-03-02T06:20:58.397Z,0
2018-03-02T06:21:38.919Z,5
2018-03-02T06:22:19.448Z,5
2018-03-02T06:22:59.952Z,5
2018-03-02T06:23:40.659Z,5
2018-03-02T06:25:53.904Z,5
2018-03-02T06:26:34.418Z,5
2018-03-02T06:27:14.915Z,5
2018-03-02T06:27:55.409Z,5
2018-03-02T06:28:35.943Z,5
2018-03-02T06:29:16.450Z,5
2018-03-02T06:29:56.943Z,5
2018-03-02T06:30:37.450Z,5
2018-03-02T06:31:17.978Z,5
2018-03-02T06:31:58.491Z,5
2018-03-02T06:32:39.007Z,5
2018-03-02T06:33:19.518Z,5
2018-03-02T06:34:00.026Z,10
2018-03-02T06:34:40.520Z,10
2018-03-02T06:35:21.006Z,10
2018-03-02T06:36:01.537Z,10
2018-03-02T06:36:42.063Z,10
2018-03-02T06:37:22.566Z,10
2018-03-02T06:38:03.068Z,10
2018-03-02T06:38:43.585Z,10
2018-03-02T06:39:24.101Z,10
2018-03-02T06:40:04.611Z,10
2018-03-02T06:40:45.142Z,10
2018-03-02T06:41:25.647Z,10
2018-03-02T06:42:06.148Z,10
2018-03-02T06:42:46.658Z,10
2018-03-02T06:43:27.175Z,10
2018-03-02T06:44:07.687Z,10
2018-03-02T06:44:48.204Z,10
2018-03-02T06:45:28.728Z,10
2018-03-02T06:46:09.239Z,10
2018-03-02T06:46:49.755Z,10
2018-03-02T06:47:30.285Z,10
2018-03-02T06:48:10.788Z,10
2018-03-02T06:48:51.310Z,15
2018-03-02T06:49:31.811Z,15
2018-03-02T06:50:12.328Z,15
2018-03-02T06:50:52.852Z,15
2018-03-02T06:51:33.353Z,15
2018-03-02T06:52:13.857Z,15
2018-03-02T06:52:54.366Z,15
2018-03-02T06:53:34.862Z,15
2018-03-02T06:54:15.383Z,15
2018-03-02T06:54:55.910Z,15
2018-03-02T06:55:36.438Z,15
2018-03-02T06:56:16.941Z,15
2018-03-02T06:56:57.479Z,15
2018-03-02T06:57:37.992Z,15
2018-03-02T06:58:18.527Z,15
2018-03-02T06:58:59.024Z,15
2018-03-02T06:59:39.535Z,15
2018-03-02T07:00:20.060Z,15
2018-03-02T07:01:00.571Z,15
2018-03-02T07:01:41.077Z,15
2018-03-02T07:02:21.566Z,15
2018-03-02T07:03:02.225Z,15
2018-03-02T07:03:42.630Z,15
2018-03-02T07:04:23.124Z,15
2018-03-02T07:05:03.677Z,15
2018-03-02T07:05:44.193Z,15
2018-03-02T07:06:24.714Z,15
2018-03-02T07:07:05.203Z,15
2018-03-02T07:07:45.728Z,15
2018-03-02T07:08:26.222Z,15
2018-03-02T07:09:06.725Z,15
2018-03-02T07:09:47.281Z,15
2018-03-02T07:10:27.770Z,15
2018-03-02T07:11:08.301Z,15
2018-03-02T07:11:48.805Z,20
2018-03-02T07:12:29.319Z,20
2018-03-02T07:13:09.836Z,20
2018-03-02T07:13:50.353Z,20
2018-03-02T07:14:30.854Z,20
2018-03-02T07:15:11.418Z,20
2018-03-02T07:15:52.098Z,20
2018-03-02T07:16:32.603Z,20
2018-03-02T07:17:13.172Z,20
2018-03-02T07:17:53.647Z,20
2018-03-02T07:18:34.159Z,20
2018-03-02T07:19:14.678Z,20
2018-03-02T07:19:55.185Z,20
2018-03-02T07:20:35.698Z,20
2018-03-02T07:21:16.202Z,20
2018-03-02T07:21:56.718Z,20
2018-03-02T07:22:37.233Z,20
2018-03-02T07:23:17.750Z,20
2018-03-02T07:23:58.274Z,20
2018-03-02T07:24:38.812Z,20
2018-03-02T07:25:19.326Z,20
2018-03-02T07:25:59.811Z,20
2018-03-02T07:26:40.334Z,20
2018-03-02T07:27:20.896Z,20
2018-03-02T07:28:01.400Z,20
2018-03-02T07:28:41.915Z,20
2018-03-02T07:29:22.973Z,20
2018-03-02T07:30:03.536Z,25
2018-03-02T07:30:44.034Z,25
2018-03-02T07:31:24.572Z,25
2018-03-02T07:32:05.089Z,25
2018-03-02T07:32:45.643Z,25
2018-03-02T07:33:27.039Z,25
2018-03-02T07:34:07.670Z,25
2018-03-02T07:34:48.362Z,25
2018-03-02T07:35:28.884Z,25
2018-03-02T07:36:09.407Z,25
2018-03-02T07:36:49.934Z,25
2018-03-02T07:37:30.437Z,25
2018-03-02T07:38:10.934Z,30
2018-03-02T07:38:51.449Z,30
2018-03-02T07:39:31.959Z,30
2018-03-02T07:40:12.470Z,30
2018-03-02T07:40:53.020Z,30
2018-03-02T07:41:33.526Z,30
2018-03-02T07:42:14.030Z,30
2018-03-02T07:42:54.524Z,30
2018-03-02T07:43:35.034Z,30
2018-03-02T07:44:15.591Z,30
2018-03-02T07:44:56.060Z,35
2018-03-02T07:45:36.562Z,35
2018-03-02T07:46:17.078Z,35
2018-03-02T07:46:57.592Z,35
2018-03-02T07:47:38.102Z,35
2018-03-02T07:48:18.642Z,35
2018-03-02T07:48:59.144Z,35
2018-03-02T07:49:39.657Z,35
2018-03-02T07:50:20.167Z,35
2018-03-02T07:51:00.698Z,40
2018-03-02T07:51:41.212Z,40
2018-03-02T07:52:21.720Z,40
2018-03-02T07:53:02.256Z,40
2018-03-02T07:53:42.790Z,40
2018-03-02T07:54:23.360Z,40
2018-03-02T07:57:02.113Z,45
2018-03-02T07:57:43.525Z,45
2018-03-02T07:58:23.896Z,45
2018-03-02T07:59:04.394Z,45
2018-03-02T07:59:44.931Z,45
2018-03-02T08:00:25.446Z,45
2018-03-02T08:01:06.051Z,45
2018-03-02T08:01:46.907Z,45
2018-03-02T08:02:27.453Z,50
2018-03-02T08:03:07.922Z,50
2018-03-02T08:03:48.471Z,50
2018-03-02T08:04:28.992Z,50
2018-03-02T08:05:09.700Z,50
2018-03-02T08:05:50.002Z,50
2018-03-02T08:06:30.564Z,50
2018-03-02T08:07:11.070Z,50
2018-03-02T08:09:29.511Z,50
2018-03-02T08:10:10.098Z,50
2018-03-02T08:10:50.627Z,50
2018-03-02T08:11:31.152Z,50
2018-03-02T08:12:11.633Z,50
2018-03-02T08:12:52.204Z,50
2018-03-02T08:13:32.736Z,50
2018-03-02T08:14:13.272Z,55
2018-03-02T08:14:53.765Z,55
2018-03-02T08:15:34.269Z,55
2018-03-02T08:16:14.859Z,55
2018-03-02T08:16:55.336Z,55
2018-03-02T08:17:35.830Z,60
2018-03-02T08:18:16.348Z,60
2018-03-02T08:18:57.011Z,60
2018-03-02T08:19:37.516Z,60
2018-03-02T08:20:18.036Z,60
2018-03-02T08:20:58.565Z,65
2018-03-02T08:21:39.094Z,65
2018-03-02T08:22:19.706Z,65
2018-03-02T08:23:00.260Z,65
2018-03-02T08:23:40.712Z,65
2018-03-02T08:24:21.241Z,65
2018-03-02T08:25:01.742Z,70
2018-03-02T08:25:42.270Z,70
2018-03-02T08:26:22.837Z,70
2018-03-02T08:27:03.357Z,70
2018-03-02T08:27:44.013Z,70
2018-03-02T08:28:24.547Z,75
2018-03-02T08:29:05.216Z,75
2018-03-02T08:29:46.658Z,75
2018-03-02T08:30:27.174Z,75
2018-03-02T08:31:07.670Z,75
2018-03-02T08:31:48.197Z,75
2018-03-02T08:32:28.706Z,75
2018-03-02T08:33:09.353Z,80
2018-03-02T08:33:49.767Z,80
2018-03-02T08:34:30.262Z,80
2018-03-02T08:35:10.773Z,80
2018-03-02T08:35:51.283Z,80
2018-03-02T08:36:31.800Z,80
2018-03-02T08:37:12.294Z,80
2018-03-02T08:37:52.799Z,80
2018-03-02T08:38:33.300Z,80
2018-03-02T08:39:13.821Z,80
2018-03-02T08:39:54.261Z,80
2018-03-02T08:40:34.729Z,80
2018-03-02T08:41:15.216Z,80
2018-03-02T08:41:55.699Z,80
2018-03-02T08:42:36.235Z,80
2018-03-02T08:43:16.753Z,80
2018-03-02T08:43:57.280Z,80
2018-03-02T08:44:37.794Z,80
2018-03-02T08:45:18.300Z,80
2018-03-02T08:45:58.796Z,80
2018-03-02T08:46:39.302Z,80
2018-03-02T08:47:19.821Z,80
2018-03-02T08:48:00.384Z,80
2018-03-02T08:48:40.903Z,80
2018-03-02T08:49:21.402Z,80
2018-03-02T08:50:01.946Z,85
2018-03-02T08:50:42.407Z,85
2018-03-02T08:51:22.921Z,80
2018-03-02T08:52:03.669Z,85
2018-03-02T08:52:44.206Z,80
2018-03-02T08:53:24.754Z,80
2018-03-02T08:54:05.261Z,85
2018-03-02T08:54:45.773Z,85
2018-03-02T08:55:26.317Z,85
2018-03-02T08:56:06.829Z,85
2018-03-02T08:56:47.340Z,90
2018-03-02T08:57:27.891Z,90
2018-03-02T08:58:08.492Z,90
2018-03-02T08:58:48.930Z,90
2018-03-02T08:59:29.439Z,90
2018-03-02T09:00:10.085Z,90
2018-03-02T09:00:50.743Z,90
2018-03-02T09:01:31.839Z,90
2018-03-02T09:02:12.632Z,95
2018-03-02T09:02:53.174Z,95
2018-03-02T09:03:33.798Z,95
2018-03-02T09:04:14.282Z,95
2018-03-02T09:04:54.868Z,95
2018-03-02T09:05:36.301Z,95
2018-03-02T09:06:16.779Z,100
2018-03-02T09:06:57.493Z,100
2018-03-02T09:07:38.089Z,100
2018-03-02T09:08:18.647Z,100
2018-03-02T09:08:59.225Z,100
2018-03-02T09:09:39.595Z,100
2018-03-02T09:10:20.818Z,100
2018-03-02T09:11:01.301Z,100
2018-03-02T09:11:42.303Z,100
2018-03-02T09:12:22.757Z,100
2018-03-02T09:13:03.364Z,100
2018-03-02T09:13:43.887Z,100
2018-03-02T09:14:24.401Z,100
2018-03-02T09:15:04.950Z,100
2018-03-02T09:15:45.431Z,100
2018-03-02T09:16:25.932Z,100
2018-03-02T09:17:06.434Z,100
2018-03-02T09:17:46.920Z,100
2018-03-02T09:18:27.414Z,100
2018-03-02T09:19:08.028Z,100
2018-03-02T09:19:48.493Z,100
2018-03-02T09:20:29.003Z,100
2018-03-02T09:21:09.990Z,100
2018-03-02T09:21:50.842Z,100
2018-03-02T09:22:31.469Z,105
2018-03-02T09:23:12.203Z,105
2018-03-02T09:23:52.650Z,105
2018-03-02T09:24:33.136Z,105
2018-03-02T09:25:13.607Z,110
2018-03-02T09:25:54.105Z,110
2018-03-02T09:26:34.585Z,110
2018-03-02T09:27:15.101Z,110
2018-03-02T09:27:55.623Z,110
2018-03-02T09:28:36.138Z,115
2018-03-02T09:29:16.645Z,115
2018-03-02T09:29:57.100Z,120
2018-03-02T09:30:37.608Z,115
2018-03-02T09:31:18.133Z,120
2018-03-02T09:31:58.658Z,115
2018-03-02T09:32:39.151Z,120
2018-03-02T09:33:19.697Z,120
2018-03-02T09:34:00.296Z,120
2018-03-02T09:34:40.826Z,120
2018-03-02T09:35:21.326Z,120
2018-03-02T09:36:01.839Z,120
2018-03-02T09:36:42.363Z,120
2018-03-02T09:37:22.894Z,120
2018-03-02T09:38:03.410Z,120
2018-03-02T09:38:43.945Z,120
2018-03-02T09:39:24.451Z,120
2018-03-02T09:40:04.948Z,120
2018-03-02T09:40:45.506Z,120
2018-03-02T09:41:26.016Z,115
2018-03-02T09:42:06.519Z,115
2018-03-02T09:42:47.103Z,115
2018-03-02T09:43:27.546Z,115
2018-03-02T09:44:08.072Z,115
2018-03-02T09:44:48.596Z,110
2018-03-02T09:45:29.166Z,110
2018-03-02T09:46:09.659Z,110
2018-03-02T09:46:50.193Z,105
2018-03-02T09:47:30.713Z,100
2018-03-02T09:48:11.237Z,100
2018-03-02T09:48:51.748Z,95
2018-03-02T09:49:32.572Z,95
2018-03-02T09:50:13.104Z,95
2018-03-02T09:50:53.626Z,105
2018-03-02T09:51:34.133Z,100
2018-03-02T09:52:14.646Z,105
2018-03-02T09:52:55.140Z,105
2018-03-02T09:53:35.691Z,105
2018-03-02T09:54:16.168Z,105
2018-03-02T09:54:56.685Z,105
2018-03-02T09:55:37.203Z,105
2018-03-02T09:56:17.716Z,105
2018-03-02T09:56:58.246Z,105
2018-03-02T09:57:38.769Z,105
2018-03-02T09:58:19.313Z,100
2018-03-02T09:58:59.920Z,100
2018-03-02T09:59:40.475Z,100
2018-03-02T10:00:20.994Z,100
2018-03-02T10:01:01.524Z,100
2018-03-02T10:01:42.021Z,100
2018-03-02T10:02:22.544Z,100
2018-03-02T10:03:03.051Z,100
2018-03-02T10:03:43.558Z,105
2018-03-02T10:04:24.076Z,105
2018-03-02T10:05:04.590Z,105
2018-03-02T10:05:45.122Z,110
2018-03-02T10:06:25.656Z,115
2018-03-02T10:07:06.156Z,110
2018-03-02T10:07:46.676Z,115
2018-03-02T10:08:27.307Z,115
2018-03-02T10:09:07.840Z,115
2018-03-02T10:09:48.394Z,120